Diane G — DIANEG — position and weather

sailwx.info

Track history (hours):
 
Tides and Currents Weather Stations Pressure Air Temp Water Temp Dewpoint Dewpoint Depression Visibility Wind Speed Wind Dir Waves Ship Positions

Diane G

Last reported at 2015-Mar-27 12:05 UTC. Time now 2015-Mar-28 12:21 UTC.
Position N 34°08' W 119°13'.

Length 35 m; draft 2.5 m.

Type: Military. MMSI: 369970275.

Date/timePositionNaut miles runAvg speedWind from/ knotsBaromVisibWave heightAir tempDewpointWater temp
2015-Mar-27 12:05N 34°08' W 119°13'6 8.6
2015-Mar-27 11:26N 34°03' W 119°09'8 8.3
2015-Mar-27 10:32N 33°57' W 119°05'8 8.0
2015-Mar-27 09:33N 33°50' W 118°60'9 8.6
2015-Mar-27 08:33N 33°43' W 118°53'19 8.4
2015-Mar-27 06:15N 33°27' W 118°41'14 8.3
2015-Mar-27 04:33N 33°15' W 118°33'8 8.0
2015-Mar-27 03:33N 33°08' W 118°29'8 7.9
2015-Mar-27 02:33N 33°00' W 118°24'8 0.3
2015-Mar-26 02:14N 33°00' W 118°33'0 0.2
2015-Mar-26 00:34N 33°00' W 118°33'1 1.2
2015-Mar-25 23:33N 32°59' W 118°32'26 4.4
2015-Mar-25 17:33N 32°47' W 118°05'5 4.9
2015-Mar-25 16:33N 32°52' W 118°04'6 5.7
2015-Mar-25 15:33N 32°58' W 118°04'14 4.8
2015-Mar-25 12:33N 33°01' W 118°21'7 7.0
2015-Mar-25 11:34N 33°01' W 118°29'4 3.5
2015-Mar-25 10:30N 33°00' W 118°33'0 0.0
2015-Mar-25 09:30N 33°00' W 118°33'0 0.0
2015-Mar-25 08:27N 33°00' W 118°33'0 0.0
2015-Mar-25 07:27N 33°00' W 118°33'0 0.0
2015-Mar-25 06:33N 33°00' W 118°33'0 0.0
2015-Mar-25 05:24N 33°01' W 118°33'0 0.0
2015-Mar-25 04:30N 33°00' W 118°33'0 0.0
2015-Mar-25 02:24N 33°00' W 118°33'0 0.0
2015-Mar-25 01:33N 33°01' W 118°33'  
Track history (hours):
 
Tides and Currents Weather Stations Pressure Air Temp Water Temp Dewpoint Dewpoint Depression Visibility Wind Speed Wind Dir Waves Ship Positions

Diane G

Last reported at 2015-Mar-27 12:05 UTC. Time now 2015-Mar-28 12:21 UTC.
Position N 34°08' W 119°13'.

Length 35 m; draft 2.5 m.

Type: Military. MMSI: 369970275.

Date/timePositionNaut miles runAvg speedWind from/ knotsBaromVisibWave heightAir tempDewpointWater temp
2015-Mar-27 12:05N 34°08' W 119°13'6 8.6
2015-Mar-27 11:26N 34°03' W 119°09'8 8.3
2015-Mar-27 10:32N 33°57' W 119°05'8 8.0
2015-Mar-27 09:33N 33°50' W 118°60'9 8.6
2015-Mar-27 08:33N 33°43' W 118°53'19 8.4
2015-Mar-27 06:15N 33°27' W 118°41'14 8.3
2015-Mar-27 04:33N 33°15' W 118°33'8 8.0
2015-Mar-27 03:33N 33°08' W 118°29'8 7.9
2015-Mar-27 02:33N 33°00' W 118°24'8 0.3
2015-Mar-26 02:14N 33°00' W 118°33'0 0.2
2015-Mar-26 00:34N 33°00' W 118°33'1 1.2
2015-Mar-25 23:33N 32°59' W 118°32'26 4.4
2015-Mar-25 17:33N 32°47' W 118°05'5 4.9
2015-Mar-25 16:33N 32°52' W 118°04'6 5.7
2015-Mar-25 15:33N 32°58' W 118°04'14 4.8
2015-Mar-25 12:33N 33°01' W 118°21'7 7.0
2015-Mar-25 11:34N 33°01' W 118°29'4 3.5
2015-Mar-25 10:30N 33°00' W 118°33'0 0.0
2015-Mar-25 09:30N 33°00' W 118°33'0 0.0
2015-Mar-25 08:27N 33°00' W 118°33'0 0.0
2015-Mar-25 07:27N 33°00' W 118°33'0 0.0
2015-Mar-25 06:33N 33°00' W 118°33'0 0.0
2015-Mar-25 05:24N 33°01' W 118°33'0 0.0
2015-Mar-25 04:30N 33°00' W 118°33'0 0.0
2015-Mar-25 02:24N 33°00' W 118°33'0 0.0
2015-Mar-25 01:33N 33°01' W 118°33'  

Dump ship's entire track history